Nearby METAR Reports

 

KSJC - San Jose, California, USA
Distance from station: NE 9mi, 14km
Updated: Mon, 26-Jun-2017 7:53pm CDT
Few Clouds
Few Clouds
 Wind from WNW
Wind: WNW 17 mph , 28 km/h
Temperature: 72°F , 22°C
Dew Point: 57°F , 14°C
Humidity: 61%
Barometer: 29.98 inHg , 1015.2 hPa
Clouds: Few Clouds
Visibility: 10 miles , 16 km
Cloud details: Few Clouds 1400 ft
2017/06/27 00:53 KSJC 270053Z 30015KT 10SM FEW014 22/14 A2998 RMK AO2 SLP150 T02220139
KNUQ - Moffett Nas/Mtn, California, USA
Distance from station: N 9mi, 14km
Updated: Mon, 26-Jun-2017 7:56pm CDT
Clear
Clear
 Wind from N
Wind: N 17 mph , 28 km/h
Temperature: 72°F , 22°C
Dew Point: 59°F , 15°C
Humidity: 65%
Barometer: 29.98 inHg , 1015.2 hPa
Clouds: Clear
Visibility: 10 miles , 16 km
2017/06/27 00:56 KNUQ 270056Z 35015KT 10SM CLR 22/15 A2998 RMK AO2 SLP155 T02220150
KPAO - Palo Alto, California, USA
Distance from station: NNW 14mi, 23km
Updated: Mon, 26-Jun-2017 5:47pm CDT
NOT Current
Clear
Clear
 Wind from NNW
Wind: NNW 21 mph , 33 km/h
Temperature: 75°F , 24°C
Dew Point: 61°F , 16°C
Humidity: 61%
Barometer: 30.01 inHg , 1016.3 hPa
Clouds: Clear
Visibility: 10 miles , 16 km
2017/06/26 22:47 KPAO 262247Z 33018KT 10SM SKC 24/16 A3001
 
KRHV - San Jose/Reid, California, USA
Distance from station: ENE 12mi, 19km
Updated: Mon, 26-Jun-2017 7:47pm CDT
Clear
Clear
 Wind from NW
Wind: NW 14 mph , 22 km/h
Temperature: 75°F , 24°C
Dew Point: 55°F , 13°C
Humidity: 50%
Barometer: 29.92 inHg , 1013.2 hPa
Clouds: Clear
Visibility: 10 miles , 16 km
2017/06/27 00:47 KRHV 270047Z 32012KT 10SM SKC 24/13 A2992
KOAK - Oakland, California, USA
Distance from station: NNW 31mi, 50km
Updated: Mon, 26-Jun-2017 7:53pm CDT
Few Clouds
Few Clouds
 Wind from W
Wind: W 21 mph , 33 km/h
Temperature: 72°F , 22°C
Dew Point: 57°F , 14°C
Humidity: 61%
Barometer: 29.99 inHg , 1015.6 hPa
Clouds: Few Clouds
Visibility: 10 miles , 16 km
Cloud details: Few Clouds 2000 ft
2017/06/27 00:53 KOAK 270053Z 26018KT 10SM FEW020 22/14 A2999 RMK AO2 SLP154 T02170139
KSQL - San Carlos Airpo, California, USA
Distance from station: NW 21mi, 34km
Updated: Mon, 26-Jun-2017 7:47pm CDT
Clear
Clear
 Wind from WSW
Wind: WSW 15 mph , 24 km/h, Gust: 21 mph , 33 km/h
Temperature: 72°F , 22°C
Dew Point: 55°F , 13°C
Humidity: 57%
Barometer: 29.99 inHg , 1015.6 hPa
Clouds: Clear
Visibility: 10 miles , 16 km
2017/06/27 00:47 KSQL 270047Z 25013G18KT 10SM SKC 22/13 A2999
 
KSFO - San Francisco, California, USA
Distance from station: NW 30mi, 49km
Updated: Mon, 26-Jun-2017 7:56pm CDT
Few Clouds
Few Clouds
 Wind from W
Wind: W 20 mph , 31 km/h, Gust: 26 mph , 43 km/h
Temperature: 68°F , 20°C
Dew Point: 54°F , 12°C
Humidity: 60%
Barometer: 29.99 inHg , 1015.6 hPa
Clouds: Few Clouds
Visibility: 10 miles , 16 km
Cloud details: Few Clouds 2100 ft
2017/06/27 00:56 KSFO 270056Z 28017G23KT 10SM FEW021 20/12 A2999 RMK AO2 SLP156 T02000122
KE16 - San Martin, California, USA
Distance from station: ESE 27mi, 43km
Updated: Mon, 26-Jun-2017 8:35pm CDT
Clear
Clear
 Wind from NW
Wind: NW 10 mph , 17 km/h, Gust: 20 mph , 31 km/h
Temperature: 77°F , 25°C
Dew Point: 55°F , 13°C
Humidity: 47%
Barometer: 29.96 inHg , 1014.6 hPa
Clouds: Clear
Visibility: 10 miles , 16 km
2017/06/27 01:35 KE16 270135Z AUTO 31009G17KT 10SM CLR 25/13 A2996 RMK AO2
KWVI - Watsonville, California, USA
Distance from station: SSE 27mi, 44km
Updated: Mon, 26-Jun-2017 8:18pm CDT
Clear
Clear
 Wind from ESE
Wind: ESE 9 mph , 15 km/h
Temperature: 70°F , 21°C
Dew Point: 57°F , 14°C
Humidity: 64%
Barometer: 29.97 inHg , 1014.9 hPa
Clouds: Clear
Visibility: 10 miles , 16 km
2017/06/27 01:18 KWVI 270118Z AUTO 11008KT 080V140 10SM CLR 21/14 A2997 RMK AO2 T02060144
 
KHAF - Half Moon Bay, California, USA
Distance from station: WNW 31mi, 50km
Updated: Mon, 26-Jun-2017 8:35pm CDT
Clear
Clear
 Wind from NW
Wind: NW 10 mph , 17 km/h
Temperature: 63°F , 17°C
Dew Point: 57°F , 14°C
Humidity: 83%
Barometer: 30.02 inHg , 1016.6 hPa
Clouds: Clear
Visibility: 10 miles , 16 km
2017/06/27 01:35 KHAF 270135Z AUTO 31009KT 10SM CLR 17/14 A3002 RMK AO2
KHWD - Hayward, California, USA
Distance from station: N 28mi, 44km
Updated: Mon, 26-Jun-2017 7:54pm CDT
Clear
Clear
 Wind from W
Wind: W 20 mph , 31 km/h
Temperature: 70°F , 21°C
Dew Point: 54°F , 12°C
Humidity: 57%
Barometer: 29.99 inHg , 1015.6 hPa
Clouds: Clear
Visibility: 10 miles , 16 km
2017/06/27 00:54 KHWD 270054Z 28017KT 10SM CLR 21/12 A2999 RMK AO2 SLP163 T02110117
KLVK - Livermore, California, USA
Distance from station: NNE 31mi, 51km
Updated: Mon, 26-Jun-2017 7:53pm CDT
Clear
Clear
 Wind from W
Wind: W 21 mph , 33 km/h
Temperature: 72°F , 22°C
Dew Point: 54°F , 12°C
Humidity: 53%
Barometer: 29.95 inHg , 1014.2 hPa
Clouds: Clear
Visibility: 10 miles , 16 km
2017/06/27 00:53 KLVK 270053Z 28018KT 10SM CLR 22/12 A2995 RMK AO2 SLP140 T02220122